sensor_id;sensor_type;location;lat;lon;timestamp;pressure;altitude;pressure_sealevel;temperature;humidity
11017;BME280;54687;50.800;6.772;2023-07-20T00:01:49;92502.06;;;-144.06;26.03
11017;BME280;54687;50.800;6.772;2023-07-20T00:04:16;92495.72;;;-144.06;25.83
11017;BME280;54687;50.800;6.772;2023-07-20T00:06:42;92521.13;;;-144.06;26.16
11017;BME280;54687;50.800;6.772;2023-07-20T00:09:09;92514.75;;;-144.06;26.21
11017;BME280;54687;50.800;6.772;2023-07-20T00:11:36;92538.03;;;-144.06;25.99
11017;BME280;54687;50.800;6.772;2023-07-20T00:14:05;92538.03;;;-144.06;26.15
11017;BME280;54687;50.800;6.772;2023-07-20T00:16:32;92580.34;;;-144.06;26.34
11017;BME280;54687;50.800;6.772;2023-07-20T00:18:59;92571.88;;;-144.06;26.45
11017;BME280;54687;50.800;6.772;2023-07-20T00:21:26;92609.97;;;-144.06;26.28
11017;BME280;54687;50.800;6.772;2023-07-20T00:23:52;92576.13;;;-144.06;26.21
11017;BME280;54687;50.800;6.772;2023-07-20T00:26:19;92645.94;;;-144.06;26.24
11017;BME280;54687;50.800;6.772;2023-07-20T00:28:46;92660.75;;;-144.06;26.30
11017;BME280;54687;50.800;6.772;2023-07-20T00:31:14;92660.75;;;-144.06;26.49
11017;BME280;54687;50.800;6.772;2023-07-20T00:33:40;92660.75;;;-144.06;26.49
11017;BME280;54687;50.800;6.772;2023-07-20T00:36:07;92681.91;;;-144.06;26.65
11017;BME280;54687;50.800;6.772;2023-07-20T00:38:33;92698.81;;;-144.06;26.64
11017;BME280;54687;50.800;6.772;2023-07-20T00:41:00;92715.75;;;-144.06;26.32
11017;BME280;54687;50.800;6.772;2023-07-20T00:43:27;92722.09;;;-144.06;26.40
11017;BME280;54687;50.800;6.772;2023-07-20T00:45:53;92681.91;;;-144.06;26.83
11017;BME280;54687;50.800;6.772;2023-07-20T00:48:21;92656.50;;;-144.06;26.57
11017;BME280;54687;50.800;6.772;2023-07-20T00:50:48;92622.66;;;-144.06;26.62
11017;BME280;54687;50.800;6.772;2023-07-20T00:53:15;92639.59;;;-144.06;26.72
11017;BME280;54687;50.800;6.772;2023-07-20T00:55:42;92643.81;;;-144.06;26.67
11017;BME280;54687;50.800;6.772;2023-07-20T00:58:09;92622.66;;;-144.06;26.72
11017;BME280;54687;50.800;6.772;2023-07-20T01:00:36;92711.53;;;-144.06;26.67
11017;BME280;54687;50.800;6.772;2023-07-20T01:03:03;92686.13;;;-144.06;26.68
11017;BME280;54687;50.800;6.772;2023-07-20T01:05:51;92707.28;;;-144.06;26.71
11017;BME280;54687;50.800;6.772;2023-07-20T01:08:25;92719.97;;;-144.06;26.71
11017;BME280;54687;50.800;6.772;2023-07-20T01:10:59;92684.00;;;-144.06;26.54
11017;BME280;54687;50.800;6.772;2023-07-20T01:13:29;92732.69;;;-144.06;26.87
11017;BME280;54687;50.800;6.772;2023-07-20T01:15:57;92728.44;;;-144.06;26.71
11017;BME280;54687;50.800;6.772;2023-07-20T01:18:24;92688.25;;;-144.06;26.85
11017;BME280;54687;50.800;6.772;2023-07-20T01:20:53;92724.22;;;-144.06;26.73
11017;BME280;54687;50.800;6.772;2023-07-20T01:23:41;92728.44;;;-144.06;26.74
11017;BME280;54687;50.800;6.772;2023-07-20T01:26:28;92719.97;;;-144.06;26.76
11017;BME280;54687;50.800;6.772;2023-07-20T01:29:16;92800.38;;;-144.06;26.66
11017;BME280;54687;50.800;6.772;2023-07-20T01:31:46;92810.94;;;-144.06;26.71
11017;BME280;54687;50.800;6.772;2023-07-20T01:34:17;92758.06;;;-144.06;26.87
11017;BME280;54687;50.800;6.772;2023-07-20T01:36:45;92777.09;;;-144.06;26.47
11017;BME280;54687;50.800;6.772;2023-07-20T01:39:12;92791.91;;;-144.06;26.59
11017;BME280;54687;50.800;6.772;2023-07-20T01:41:40;92741.13;;;-144.06;26.61
11017;BME280;54687;50.800;6.772;2023-07-20T01:44:07;92762.28;;;-144.06;26.75
11017;BME280;54687;50.800;6.772;2023-07-20T01:46:34;92741.13;;;-144.06;26.57
11017;BME280;54687;50.800;6.772;2023-07-20T01:49:02;92745.38;;;-144.06;26.57
11017;BME280;54687;50.800;6.772;2023-07-20T01:51:28;92781.34;;;-144.06;26.44
11017;BME280;54687;50.800;6.772;2023-07-20T01:53:55;92796.16;;;-144.06;26.53
11017;BME280;54687;50.800;6.772;2023-07-20T01:56:22;92810.94;;;-144.06;26.54
11017;BME280;54687;50.800;6.772;2023-07-20T01:58:48;92794.03;;;-144.06;26.49
11017;BME280;54687;50.800;6.772;2023-07-20T02:01:15;92775.00;;;-144.06;26.48
11017;BME280;54687;50.800;6.772;2023-07-20T02:03:41;92842.69;;;-144.06;26.66
11017;BME280;54687;50.800;6.772;2023-07-20T02:06:09;92868.06;;;-144.06;26.40
11017;BME280;54687;50.800;6.772;2023-07-20T02:08:36;92906.16;;;-144.06;26.79
11017;BME280;54687;50.800;6.772;2023-07-20T02:11:02;92931.56;;;-144.06;26.72
11017;BME280;54687;50.800;6.772;2023-07-20T02:13:29;92963.28;;;-144.06;26.70
11017;BME280;54687;50.800;6.772;2023-07-20T02:15:56;92975.97;;;-144.06;26.90
11017;BME280;54687;50.800;6.772;2023-07-20T02:18:22;92999.25;;;-144.06;26.79
11017;BME280;54687;50.800;6.772;2023-07-20T02:20:49;92992.91;;;-144.06;26.68
11017;BME280;54687;50.800;6.772;2023-07-20T02:23:18;93026.75;;;-144.06;26.70
11017;BME280;54687;50.800;6.772;2023-07-20T02:25:44;92984.44;;;-144.06;26.74
11017;BME280;54687;50.800;6.772;2023-07-20T02:28:13;92940.00;;;-144.06;26.67
11017;BME280;54687;50.800;6.772;2023-07-20T02:30:40;92952.72;;;-144.06;26.54
11017;BME280;54687;50.800;6.772;2023-07-20T02:33:07;92990.78;;;-144.06;26.52
11017;BME280;54687;50.800;6.772;2023-07-20T02:35:34;93022.53;;;-144.06;26.59
11017;BME280;54687;50.800;6.772;2023-07-20T02:38:00;92999.25;;;-144.06;26.76
11017;BME280;54687;50.800;6.772;2023-07-20T02:40:28;93066.97;;;-144.06;26.62
11017;BME280;54687;50.800;6.772;2023-07-20T02:42:55;93054.28;;;-144.06;26.81
11017;BME280;54687;50.800;6.772;2023-07-20T02:45:21;93126.22;;;-144.06;26.82
11017;BME280;54687;50.800;6.772;2023-07-20T02:47:49;93151.59;;;-144.06;26.76
11017;BME280;54687;50.800;6.772;2023-07-20T02:50:15;93119.84;;;-144.06;26.77
11017;BME280;54687;50.800;6.772;2023-07-20T02:52:42;93181.22;;;-144.06;27.02
11017;BME280;54687;50.800;6.772;2023-07-20T02:55:09;93149.47;;;-144.06;27.04
11017;BME280;54687;50.800;6.772;2023-07-20T02:57:37;93121.97;;;-144.06;26.74
11017;BME280;54687;50.800;6.772;2023-07-20T03:00:05;93094.47;;;-144.06;26.87
11017;BME280;54687;50.800;6.772;2023-07-20T03:02:32;93105.06;;;-144.06;26.80
11017;BME280;54687;50.800;6.772;2023-07-20T03:04:59;93155.84;;;-144.06;26.74
11017;BME280;54687;50.800;6.772;2023-07-20T03:07:27;93143.13;;;-144.06;26.54
11017;BME280;54687;50.800;6.772;2023-07-20T03:09:54;93126.22;;;-144.06;26.84
11017;BME280;54687;50.800;6.772;2023-07-20T03:12:21;93100.81;;;-144.06;26.54
11017;BME280;54687;50.800;6.772;2023-07-20T03:14:49;93119.84;;;-144.06;26.65
11017;BME280;54687;50.800;6.772;2023-07-20T03:17:16;93071.19;;;-144.06;26.64
11017;BME280;54687;50.800;6.772;2023-07-20T03:19:42;93126.22;;;-144.06;26.69
11017;BME280;54687;50.800;6.772;2023-07-20T03:22:09;93100.81;;;-144.06;26.49
11017;BME280;54687;50.800;6.772;2023-07-20T03:24:35;93121.97;;;-144.06;26.47
11017;BME280;54687;50.800;6.772;2023-07-20T03:27:02;93117.75;;;-144.06;26.54
11017;BME280;54687;50.800;6.772;2023-07-20T03:29:31;93096.59;;;-144.06;26.46
11017;BME280;54687;50.800;6.772;2023-07-20T03:31:59;93121.97;;;-144.06;26.42
11017;BME280;54687;50.800;6.772;2023-07-20T03:34:26;93126.22;;;-144.06;26.41
11017;BME280;54687;50.800;6.772;2023-07-20T03:36:53;93155.84;;;-144.06;26.63
11017;BME280;54687;50.800;6.772;2023-07-20T03:39:19;93138.91;;;-144.06;26.53
11017;BME280;54687;50.800;6.772;2023-07-20T03:41:47;93109.28;;;-144.06;26.44
11017;BME280;54687;50.800;6.772;2023-07-20T03:44:13;93107.16;;;-144.06;26.48
11017;BME280;54687;50.800;6.772;2023-07-20T03:46:40;93166.41;;;-144.06;26.63
11017;BME280;54687;50.800;6.772;2023-07-20T03:49:08;93236.22;;;-144.06;26.74
11017;BME280;54687;50.800;6.772;2023-07-20T03:51:35;93261.63;;;-144.06;26.67
11017;BME280;54687;50.800;6.772;2023-07-20T03:54:02;93223.53;;;-144.06;26.69
11017;BME280;54687;50.800;6.772;2023-07-20T03:56:28;93217.19;;;-144.06;26.83
11017;BME280;54687;50.800;6.772;2023-07-20T03:58:59;93215.06;;;-144.06;26.86
11017;BME280;54687;50.800;6.772;2023-07-20T04:01:26;93267.97;;;-144.06;26.82
11017;BME280;54687;50.800;6.772;2023-07-20T04:03:52;93227.78;;;-144.06;26.76
11017;BME280;54687;50.800;6.772;2023-07-20T04:06:20;93251.03;;;-144.06;26.77
11017;BME280;54687;50.800;6.772;2023-07-20T04:08:47;93253.16;;;-144.06;26.91
11017;BME280;54687;50.800;6.772;2023-07-20T04:11:14;93255.28;;;-144.06;26.95
11017;BME280;54687;50.800;6.772;2023-07-20T04:13:40;93248.94;;;-144.06;26.89
11017;BME280;54687;50.800;6.772;2023-07-20T04:16:07;93236.22;;;-144.06;26.93
11017;BME280;54687;50.800;6.772;2023-07-20T04:18:34;93236.22;;;-144.06;26.86
11017;BME280;54687;50.800;6.772;2023-07-20T04:21:00;93215.06;;;-144.06;26.93
11017;BME280;54687;50.800;6.772;2023-07-20T04:23:28;93215.06;;;-144.06;26.96
11017;BME280;54687;50.800;6.772;2023-07-20T04:25:55;93185.44;;;-144.06;26.68
11017;BME280;54687;50.800;6.772;2023-07-20T04:28:22;93115.63;;;-144.06;26.64
11017;BME280;54687;50.800;6.772;2023-07-20T04:30:49;93102.94;;;-144.06;26.65
11017;BME280;54687;50.800;6.772;2023-07-20T04:33:16;93083.88;;;-144.06;26.77
11017;BME280;54687;50.800;6.772;2023-07-20T04:35:49;93130.44;;;-144.06;26.91
11017;BME280;54687;50.800;6.772;2023-07-20T04:38:16;93143.13;;;-144.06;26.71
11017;BME280;54687;50.800;6.772;2023-07-20T04:40:45;93132.56;;;-144.06;26.53
11017;BME280;54687;50.800;6.772;2023-07-20T04:43:12;93035.22;;;-144.06;26.67
11017;BME280;54687;50.800;6.772;2023-07-20T04:45:38;93081.78;;;-144.06;26.55
11017;BME280;54687;50.800;6.772;2023-07-20T04:48:08;93096.59;;;-144.06;26.72
11017;BME280;54687;50.800;6.772;2023-07-20T04:50:35;93138.91;;;-144.06;26.74
11017;BME280;54687;50.800;6.772;2023-07-20T04:53:02;93100.81;;;-144.06;26.71
11017;BME280;54687;50.800;6.772;2023-07-20T04:55:29;93130.44;;;-144.06;26.63
11017;BME280;54687;50.800;6.772;2023-07-20T04:57:57;93060.63;;;-144.06;26.74
11017;BME280;54687;50.800;6.772;2023-07-20T05:00:23;93062.72;;;-144.06;26.60
11017;BME280;54687;50.800;6.772;2023-07-20T05:02:50;93024.66;;;-144.06;26.55
11017;BME280;54687;50.800;6.772;2023-07-20T05:05:17;93054.28;;;-144.06;26.60
11017;BME280;54687;50.800;6.772;2023-07-20T05:07:43;93092.34;;;-144.06;26.52
11017;BME280;54687;50.800;6.772;2023-07-20T05:10:10;93109.28;;;-144.06;26.70
11017;BME280;54687;50.800;6.772;2023-07-20T05:12:37;93045.81;;;-144.06;26.81
11017;BME280;54687;50.800;6.772;2023-07-20T05:15:06;93069.09;;;-144.06;26.81
11017;BME280;54687;50.800;6.772;2023-07-20T05:17:33;93028.88;;;-144.06;26.49
11017;BME280;54687;50.800;6.772;2023-07-20T05:19:59;92952.72;;;-144.06;26.49
11017;BME280;54687;50.800;6.772;2023-07-20T05:22:26;92889.25;;;-144.06;26.23
11017;BME280;54687;50.800;6.772;2023-07-20T05:24:52;92796.16;;;-144.06;26.17
11017;BME280;54687;50.800;6.772;2023-07-20T05:27:19;92758.06;;;-144.06;26.04
11017;BME280;54687;50.800;6.772;2023-07-20T05:29:46;92684.00;;;-144.06;26.17
11017;BME280;54687;50.800;6.772;2023-07-20T05:32:14;92679.78;;;-144.06;25.93
11017;BME280;54687;50.800;6.772;2023-07-20T05:34:41;92745.38;;;-144.06;25.96
11017;BME280;54687;50.800;6.772;2023-07-20T05:37:07;92656.50;;;-144.06;26.36
11017;BME280;54687;50.800;6.772;2023-07-20T05:39:34;92764.41;;;-144.06;26.29
11017;BME280;54687;50.800;6.772;2023-07-20T05:42:00;92669.22;;;-144.06;26.22
11017;BME280;54687;50.800;6.772;2023-07-20T05:44:27;92656.50;;;-144.06;25.89
11017;BME280;54687;50.800;6.772;2023-07-20T05:46:53;92694.59;;;-144.06;26.19
11017;BME280;54687;50.800;6.772;2023-07-20T05:49:21;92707.28;;;-144.06;26.25
11017;BME280;54687;50.800;6.772;2023-07-20T05:51:48;92796.16;;;-144.06;26.47
11017;BME280;54687;50.800;6.772;2023-07-20T05:54:14;92772.88;;;-144.06;26.28
11017;BME280;54687;50.800;6.772;2023-07-20T05:56:41;92764.41;;;-144.06;26.32
11017;BME280;54687;50.800;6.772;2023-07-20T05:59:08;92770.75;;;-144.06;26.18
11017;BME280;54687;50.800;6.772;2023-07-20T06:01:34;92775.00;;;-144.06;26.26
11017;BME280;54687;50.800;6.772;2023-07-20T06:04:02;92791.91;;;-144.06;26.30
11017;BME280;54687;50.800;6.772;2023-07-20T06:06:30;92762.28;;;-144.06;26.54
11017;BME280;54687;50.800;6.772;2023-07-20T06:08:56;92810.94;;;-144.06;26.37
11017;BME280;54687;50.800;6.772;2023-07-20T06:11:23;92796.16;;;-144.06;26.62
11017;BME280;54687;50.800;6.772;2023-07-20T06:13:50;92802.50;;;-144.06;26.36
11017;BME280;54687;50.800;6.772;2023-07-20T06:16:17;92813.06;;;-144.06;26.57
11017;BME280;54687;50.800;6.772;2023-07-20T06:18:44;92842.69;;;-144.06;26.57
11017;BME280;54687;50.800;6.772;2023-07-20T06:21:10;92846.91;;;-144.06;26.33
11017;BME280;54687;50.800;6.772;2023-07-20T06:23:38;92800.38;;;-144.06;26.29
11017;BME280;54687;50.800;6.772;2023-07-20T06:26:05;92853.28;;;-144.06;26.40
11017;BME280;54687;50.800;6.772;2023-07-20T06:28:32;92673.44;;;-144.06;26.28
11017;BME280;54687;50.800;6.772;2023-07-20T06:30:59;92664.97;;;-144.06;26.22
11017;BME280;54687;50.800;6.772;2023-07-20T06:33:26;92652.28;;;-144.06;26.00
11017;BME280;54687;50.800;6.772;2023-07-20T06:35:53;92664.97;;;-144.06;25.87
11017;BME280;54687;50.800;6.772;2023-07-20T06:38:19;92715.75;;;-144.06;26.12
11017;BME280;54687;50.800;6.772;2023-07-20T06:40:49;92601.50;;;-144.06;25.95
11017;BME280;54687;50.800;6.772;2023-07-20T06:43:17;92550.72;;;-144.06;25.83
11017;BME280;54687;50.800;6.772;2023-07-20T06:45:44;92521.13;;;-144.06;26.17
11017;BME280;54687;50.800;6.772;2023-07-20T06:48:10;92470.34;;;-144.06;25.84
11017;BME280;54687;50.800;6.772;2023-07-20T06:50:37;92508.41;;;-144.06;25.89
11017;BME280;54687;50.800;6.772;2023-07-20T06:53:03;92546.50;;;-144.06;25.95
11017;BME280;54687;50.800;6.772;2023-07-20T06:55:30;92504.19;;;-144.06;25.81
11017;BME280;54687;50.800;6.772;2023-07-20T06:57:58;92516.88;;;-144.06;25.72
11017;BME280;54687;50.800;6.772;2023-07-20T07:00:24;92432.25;;;-144.06;25.67
11017;BME280;54687;50.800;6.772;2023-07-20T07:02:52;92444.97;;;-144.06;25.67
11017;BME280;54687;50.800;6.772;2023-07-20T07:05:18;92347.66;;;-144.06;25.52
11017;BME280;54687;50.800;6.772;2023-07-20T07:07:45;92347.66;;;-144.06;25.49
11017;BME280;54687;50.800;6.772;2023-07-20T07:10:12;92449.19;;;-144.06;25.22
11017;BME280;54687;50.800;6.772;2023-07-20T07:12:39;92354.00;;;-144.06;25.27
11017;BME280;54687;50.800;6.772;2023-07-20T07:15:08;92191.09;;;-144.06;25.39
11017;BME280;54687;50.800;6.772;2023-07-20T07:17:36;92002.84;;;-144.06;25.09
11017;BME280;54687;50.800;6.772;2023-07-20T07:20:04;91930.94;;;-144.06;24.98
11017;BME280;54687;50.800;6.772;2023-07-20T07:22:33;91844.22;;;-144.06;24.83
11017;BME280;54687;50.800;6.772;2023-07-20T07:24:59;91884.41;;;-144.06;24.47
11017;BME280;54687;50.800;6.772;2023-07-20T07:27:26;91935.16;;;-144.06;24.46
11017;BME280;54687;50.800;6.772;2023-07-20T07:29:52;91831.53;;;-144.06;24.56
11017;BME280;54687;50.800;6.772;2023-07-20T07:32:21;91818.84;;;-144.06;24.64
11017;BME280;54687;50.800;6.772;2023-07-20T07:34:48;91746.91;;;-144.06;24.38
11017;BME280;54687;50.800;6.772;2023-07-20T07:37:14;91717.31;;;-144.06;24.27
11017;BME280;54687;50.800;6.772;2023-07-20T07:39:41;91691.94;;;-144.06;24.40
11017;BME280;54687;50.800;6.772;2023-07-20T07:42:08;91746.91;;;-144.06;24.35
11017;BME280;54687;50.800;6.772;2023-07-20T07:44:35;91789.22;;;-144.06;24.44
11017;BME280;54687;50.800;6.772;2023-07-20T07:47:01;91734.22;;;-144.06;24.22
11017;BME280;54687;50.800;6.772;2023-07-20T07:49:29;91607.31;;;-144.06;24.19
11017;BME280;54687;50.800;6.772;2023-07-20T07:51:56;91611.56;;;-144.06;24.12
11017;BME280;54687;50.800;6.772;2023-07-20T07:54:23;91573.50;;;-144.06;24.02
11017;BME280;54687;50.800;6.772;2023-07-20T07:56:50;91550.22;;;-144.06;23.74
11017;BME280;54687;50.800;6.772;2023-07-20T07:59:17;91505.81;;;-144.06;23.87
11017;BME280;54687;50.800;6.772;2023-07-20T08:01:43;91431.78;;;-144.06;23.79
11017;BME280;54687;50.800;6.772;2023-07-20T08:04:12;91535.41;;;-144.06;23.84
11017;BME280;54687;50.800;6.772;2023-07-20T08:06:40;91526.97;;;-144.06;24.04
11017;BME280;54687;50.800;6.772;2023-07-20T08:09:06;91501.59;;;-144.06;23.78
11017;BME280;54687;50.800;6.772;2023-07-20T08:11:33;91302.78;;;-144.06;23.57
11017;BME280;54687;50.800;6.772;2023-07-20T08:13:59;91304.91;;;-144.06;23.60
11017;BME280;54687;50.800;6.772;2023-07-20T08:16:26;91256.25;;;-144.06;23.48
11017;BME280;54687;50.800;6.772;2023-07-20T08:18:52;91218.19;;;-144.06;23.50
11017;BME280;54687;50.800;6.772;2023-07-20T08:21:19;91522.72;;;-144.06;23.73
11017;BME280;54687;50.800;6.772;2023-07-20T08:23:47;91565.03;;;-144.06;23.69
11017;BME280;54687;50.800;6.772;2023-07-20T08:26:13;91546.00;;;-144.06;23.56
11017;BME280;54687;50.800;6.772;2023-07-20T08:28:40;91433.91;;;-144.06;23.55
11017;BME280;54687;50.800;6.772;2023-07-20T08:31:07;91296.44;;;-144.06;23.45
11017;BME280;54687;50.800;6.772;2023-07-20T08:33:33;91169.56;;;-144.06;23.35
11017;BME280;54687;50.800;6.772;2023-07-20T08:36:00;91247.81;;;-144.06;23.08
11017;BME280;54687;50.800;6.772;2023-07-20T08:38:29;91417.00;;;-144.06;22.81
11017;BME280;54687;50.800;6.772;2023-07-20T08:40:57;91408.53;;;-144.06;22.82
11017;BME280;54687;50.800;6.772;2023-07-20T08:43:25;91560.81;;;-144.06;22.82
11017;BME280;54687;50.800;6.772;2023-07-20T08:45:54;91393.72;;;-144.06;23.16
11017;BME280;54687;50.800;6.772;2023-07-20T08:48:21;91252.03;;;-144.06;22.89
11017;BME280;54687;50.800;6.772;2023-07-20T08:50:51;91271.06;;;-144.06;22.30
11017;BME280;54687;50.800;6.772;2023-07-20T08:53:19;91495.25;;;-144.06;22.70
11017;BME280;54687;50.800;6.772;2023-07-20T08:55:48;91321.81;;;-144.06;22.91
11017;BME280;54687;50.800;6.772;2023-07-20T08:58:18;91260.50;;;-144.06;22.58
11017;BME280;54687;50.800;6.772;2023-07-20T09:00:45;91192.81;;;-144.06;22.65
11017;BME280;54687;50.800;6.772;2023-07-20T09:03:18;90972.91;;;-144.06;22.54
11017;BME280;54687;50.800;6.772;2023-07-20T09:05:46;90786.81;;;-144.06;22.46
11017;BME280;54687;50.800;6.772;2023-07-20T09:08:12;90689.56;;;-144.06;22.28
11017;BME280;54687;50.800;6.772;2023-07-20T09:10:39;90839.69;;;-144.06;22.25
11017;BME280;54687;50.800;6.772;2023-07-20T09:13:05;90930.59;;;-144.06;22.47
11017;BME280;54687;50.800;6.772;2023-07-20T09:15:34;90894.66;;;-144.06;22.47
11017;BME280;54687;50.800;6.772;2023-07-20T09:18:02;90922.16;;;-144.06;22.54
11017;BME280;54687;50.800;6.772;2023-07-20T09:20:32;91101.88;;;-144.06;22.72
11017;BME280;54687;50.800;6.772;2023-07-20T09:22:59;91146.28;;;-144.06;22.74
11017;BME280;54687;50.800;6.772;2023-07-20T09:25:26;91095.53;;;-144.06;22.82
11017;BME280;54687;50.800;6.772;2023-07-20T09:27:53;91133.59;;;-144.06;22.43
11017;BME280;54687;50.800;6.772;2023-07-20T09:30:24;91290.09;;;-144.06;22.30
11017;BME280;54687;50.800;6.772;2023-07-20T09:32:53;91032.09;;;-144.06;22.30
11017;BME280;54687;50.800;6.772;2023-07-20T09:35:20;91137.84;;;-144.06;22.43
11017;BME280;54687;50.800;6.772;2023-07-20T09:37:50;91032.09;;;-144.06;22.41
11017;BME280;54687;50.800;6.772;2023-07-20T09:40:19;91116.69;;;-144.06;22.27
11017;BME280;54687;50.800;6.772;2023-07-20T09:42:46;91182.25;;;-144.06;22.35
11017;BME280;54687;50.800;6.772;2023-07-20T09:45:13;91334.50;;;-144.06;22.35
11017;BME280;54687;50.800;6.772;2023-07-20T09:47:40;91133.59;;;-144.06;22.50
11017;BME280;54687;50.800;6.772;2023-07-20T09:50:09;90905.22;;;-144.06;22.35
11017;BME280;54687;50.800;6.772;2023-07-20T09:52:41;90708.59;;;-144.06;21.98
11017;BME280;54687;50.800;6.772;2023-07-20T09:55:10;90562.69;;;-144.06;21.68
11017;BME280;54687;50.800;6.772;2023-07-20T09:57:37;90330.13;;;-144.06;21.75
11017;BME280;54687;50.800;6.772;2023-07-20T10:00:06;90275.16;;;-144.06;21.64
11017;BME280;54687;50.800;6.772;2023-07-20T10:02:42;90101.81;;;-144.06;21.42
11017;BME280;54687;50.800;6.772;2023-07-20T10:05:12;90118.72;;;-144.06;21.73
11017;BME280;54687;50.800;6.772;2023-07-20T10:07:43;90279.38;;;-144.06;21.83
11017;BME280;54687;50.800;6.772;2023-07-20T10:10:14;90562.69;;;-144.06;21.91
11017;BME280;54687;50.800;6.772;2023-07-20T10:12:41;90372.41;;;-144.06;21.65
11017;BME280;54687;50.800;6.772;2023-07-20T10:15:11;90220.19;;;-144.06;21.86
11017;BME280;54687;50.800;6.772;2023-07-20T10:17:46;90254.00;;;-144.06;21.63
11017;BME280;54687;50.800;6.772;2023-07-20T10:20:19;90482.34;;;-144.06;21.54
11017;BME280;54687;50.800;6.772;2023-07-20T10:22:48;90175.78;;;-144.06;21.66
11017;BME280;54687;50.800;6.772;2023-07-20T10:25:16;90245.56;;;-144.06;21.44
11017;BME280;54687;50.800;6.772;2023-07-20T10:27:43;90224.41;;;-144.06;21.41
11017;BME280;54687;50.800;6.772;2023-07-20T10:30:10;90283.63;;;-144.06;21.12
11017;BME280;54687;50.800;6.772;2023-07-20T10:32:37;90152.53;;;-144.06;20.95
11017;BME280;54687;50.800;6.772;2023-07-20T10:35:12;89780.47;;;-144.06;21.08
11017;BME280;54687;50.800;6.772;2023-07-20T10:37:52;89831.22;;;-144.06;21.01
11017;BME280;54687;50.800;6.772;2023-07-20T10:40:33;90361.84;;;-144.06;21.29
11017;BME280;54687;50.800;6.772;2023-07-20T10:43:03;90659.94;;;-144.06;21.55
11017;BME280;54687;50.800;6.772;2023-07-20T10:45:39;90812.19;;;-144.06;21.69
11017;BME280;54687;50.800;6.772;2023-07-20T10:48:13;91065.94;;;-144.06;21.96
11017;BME280;54687;50.800;6.772;2023-07-20T10:50:40;90820.66;;;-144.06;21.91
11017;BME280;54687;50.800;6.772;2023-07-20T10:53:13;90624.00;;;-144.06;21.75
11017;BME280;54687;50.800;6.772;2023-07-20T10:55:41;90505.59;;;-144.06;21.58
11017;BME280;54687;50.800;6.772;2023-07-20T10:58:10;90446.41;;;-144.06;21.58
11017;BME280;54687;50.800;6.772;2023-07-20T11:00:37;90266.69;;;-144.06;21.30
11017;BME280;54687;50.800;6.772;2023-07-20T11:03:04;90207.50;;;-144.06;21.37
11017;BME280;54687;50.800;6.772;2023-07-20T11:05:35;90349.16;;;-144.06;21.15
11017;BME280;54687;50.800;6.772;2023-07-20T11:08:04;90091.22;;;-144.06;21.28
11017;BME280;54687;50.800;6.772;2023-07-20T11:10:32;89987.66;;;-144.06;21.11
11017;BME280;54687;50.800;6.772;2023-07-20T11:13:18;89879.84;;;-144.06;21.17
11017;BME280;54687;50.800;6.772;2023-07-20T11:15:45;90298.41;;;-144.06;21.40
11017;BME280;54687;50.800;6.772;2023-07-20T11:18:13;90528.88;;;-144.06;21.47
11017;BME280;54687;50.800;6.772;2023-07-20T11:20:40;90528.88;;;-144.06;21.34
11017;BME280;54687;50.800;6.772;2023-07-20T11:23:07;90556.34;;;-144.06;21.51
11017;BME280;54687;50.800;6.772;2023-07-20T11:25:39;90507.72;;;-144.06;21.31
11017;BME280;54687;50.800;6.772;2023-07-20T11:28:07;90446.41;;;-144.06;21.19
11017;BME280;54687;50.800;6.772;2023-07-20T11:30:34;90602.88;;;-144.06;21.13
11017;BME280;54687;50.800;6.772;2023-07-20T11:33:01;90619.78;;;-144.06;21.28
11017;BME280;54687;50.800;6.772;2023-07-20T11:35:28;90545.78;;;-144.06;21.29
11017;BME280;54687;50.800;6.772;2023-07-20T11:37:55;90511.94;;;-144.06;21.34
11017;BME280;54687;50.800;6.772;2023-07-20T11:40:22;90450.63;;;-144.06;21.14
11017;BME280;54687;50.800;6.772;2023-07-20T11:42:50;90317.44;;;-144.06;21.08
11017;BME280;54687;50.800;6.772;2023-07-20T11:45:18;90319.56;;;-144.06;21.25
11017;BME280;54687;50.800;6.772;2023-07-20T11:47:47;90435.84;;;-144.06;21.05
11017;BME280;54687;50.800;6.772;2023-07-20T11:50:15;90410.47;;;-144.06;21.41
11017;BME280;54687;50.800;6.772;2023-07-20T11:52:42;90304.75;;;-144.06;21.31
11017;BME280;54687;50.800;6.772;2023-07-20T11:55:09;90374.53;;;-144.06;21.25
11017;BME280;54687;50.800;6.772;2023-07-20T11:57:37;90514.06;;;-144.06;21.03
11017;BME280;54687;50.800;6.772;2023-07-20T12:00:06;90478.13;;;-144.06;21.09
11017;BME280;54687;50.800;6.772;2023-07-20T12:02:37;90361.84;;;-144.06;21.04
11017;BME280;54687;50.800;6.772;2023-07-20T12:05:05;90190.59;;;-144.06;21.08
11017;BME280;54687;50.800;6.772;2023-07-20T12:07:36;90266.69;;;-144.06;21.01
11017;BME280;54687;50.800;6.772;2023-07-20T12:10:06;90266.69;;;-144.06;20.83
11017;BME280;54687;50.800;6.772;2023-07-20T12:12:33;89939.03;;;-144.06;20.87
11017;BME280;54687;50.800;6.772;2023-07-20T12:15:15;89865.03;;;-144.06;20.56
11017;BME280;54687;50.800;6.772;2023-07-20T12:17:43;89668.44;;;-144.06;20.81
11017;BME280;54687;50.800;6.772;2023-07-20T12:20:10;89518.38;;;-144.06;20.66
11017;BME280;54687;50.800;6.772;2023-07-20T12:22:40;89516.25;;;-144.06;20.73
11017;BME280;54687;50.800;6.772;2023-07-20T12:25:08;89704.38;;;-144.06;20.48
11017;BME280;54687;50.800;6.772;2023-07-20T12:27:36;89898.84;;;-144.06;20.44
11017;BME280;54687;50.800;6.772;2023-07-20T12:30:04;90275.16;;;-144.06;20.78
11017;BME280;54687;50.800;6.772;2023-07-20T12:32:33;89873.50;;;-144.06;20.91
11017;BME280;54687;50.800;6.772;2023-07-20T12:34:59;89700.16;;;-144.06;20.56
11017;BME280;54687;50.800;6.772;2023-07-20T12:37:28;89858.69;;;-144.06;20.51
11017;BME280;54687;50.800;6.772;2023-07-20T12:39:55;89729.75;;;-144.06;20.28
11017;BME280;54687;50.800;6.772;2023-07-20T12:42:21;89742.44;;;-144.06;20.35
11017;BME280;54687;50.800;6.772;2023-07-20T12:44:48;89653.66;;;-144.06;20.45